Архив погоды в Кемчуге

Метеограмма Кемчуг
Среда, 19 Июня
Время местн. Темп Ветер Видим Явления Облачность нижн/средн/верх Атм. давл. Влжн Точка росы ВНГО R Сост. почвы Tg s
Напр Скр Прв ур.ст ур.м изм
19:00 +19.6° З 6 13 20 км - переменная облачность 729 758 +2.6 41% +6° 1 км 0 - - -
16:00 +20.9° Ю,Ю-З 5 14 20 км - облачно с прояснениями 727 755 0 39% +6.6° 1 км - - - -
13:00 +19.9° Ю-З 5 12 20 км - облачно с прояснениями 727 755 +1.3 49% +8.8° 1 км - - - -
10:00 +20.5° С 3 - 20 км - облачно с прояснениями 726 754 +0.2 52% +10.3° 1 км - - - -
07:00 +13.6° Ю 1 - 20 км - преимущественно облачно 725 754 +0.6 72% +8.7° 1 км 0 Сухая (без трещин) +12° -
04:00 +14.2° С-В 1 - 20 км - облачно с прояснениями 725 754 -1.3 54% +5.1° 1 км - - - -
01:00 +15.4° В 3 - более 50 км - переменная облачность 726 755 -1.1 51% +5.3° 1 км - - - -
Вторник, 18 Июня
Время местн. Темп Ветер Видим Явления Облачность нижн/средн/верх Атм. давл. Влжн Точка росы ВНГО R Сост. почвы Tg s
Напр Скр Прв ур.ст ур.м изм
22:00 +17.7° В 4 - 20 км - переменная облачность 727 756 -0.8 46% +5.9° более 2.5 км - - - -
19:00 +23.6° В,Ю-В 2 - 20 км - переменная облачность 728 756 -1.2 28% +4° более 2.5 км 0 - - -
16:00 +23.2° В,Ю-В 3 - 20 км - переменная облачность 729 757 -1.4 29% +4.1° 1.5 км - - - -
13:00 +20.8° Ю-В 4 - 20 км - переменная облачность 730 759 -1.9 33% +3.9° 1.5 км - - - -
10:00 +17.7° Ю,Ю-В 3 - 20 км - переменная облачность 732 761 +0.4 52% +7.8° 1.5 км - - - -
07:00 +11.4° С 3 - 20 км - ясно 732 761 +0.1 72% +6.5° более 2.5 км 0 Влажная (без луж) +5° -
04:00 +7.8° В,Ю-В 2 - 20 км - ясно 732 762 +0.2 83% +5.1° более 2.5 км - - - -
01:00 +9.4° Ю 2 - более 50 км - ясно 732 761 +0.1 76% +5.3° более 2.5 км - - - -
Понедельник, 17 Июня
Время местн. Темп Ветер Видим Явления Облачность нижн/средн/верх Атм. давл. Влжн Точка росы ВНГО R Сост. почвы Tg s
Напр Скр Прв ур.ст ур.м изм
22:00 +11.3° Ю 3 - 20 км - переменная облачность 732 761 +0.8 72% +6.5° 1 км - - - -
19:00 +15° С-В 5 11 20 км - переменная облачность 731 760 +0.5 57% +6.5° 1 км 2 - - -
16:00 +12.8° Ю-З 4 14 20 км - облачно 730 760 +1.5 74% +8.2° 1 км - - - -
13:00 +13.3° Ю-З 5 - 20 км небо без изменений {ливневые осадки} облачно 729 758 +0.9 73% +8.5° 1 км - - - -
10:00 +11.7° Ю,Ю-З 4 - 20 км небо без изменений {ливневые осадки} облачно 728 757 +0.8 90% +10.1° 1 км - - - -
07:00 +12.6° З,Ю-З 4 10 20 км - облачно 727 756 +1.4 79% +9.1° 1 км 0 Сухая (без трещин) +14° -
04:00 +14.2° З 3 - 20 км - облачно 726 754 +1.1 81% +10.9° 1 км - - - -
01:00 +14.1° Ю-З 2 - более 50 км - облачно с прояснениями 725 754 +1.3 91% +12.7° 1 км - - - -
Воскресенье, 16 Июня
Время местн. Темп Ветер Видим Явления Облачность нижн/средн/верх Атм. давл. Влжн Точка росы ВНГО R Сост. почвы Tg s
Напр Скр Прв ур.ст ур.м изм
22:00 +17.7° С-В 1 - 20 км - облачно с прояснениями 723 752 +0.3 80% +14.3° 1 км - - - -
19:00 +25.3° С,С-З 2 - 20 км - преимущественно облачно 723 751 +0.2 48% +13.6° 1 км 0 - - -
16:00 +24.8° З 2 - 20 км - облачно с прояснениями 723 751 -0.8 49% +13.5° 1 км - - - -